createdAt,value
2019-04-22T00:02:03.366Z,16.64
2019-04-22T00:05:13.130Z,16.66
2019-04-22T00:08:31.284Z,16.65
2019-04-22T00:11:35.731Z,16.63
2019-04-22T00:14:43.962Z,16.62
2019-04-22T00:18:02.970Z,16.56
2019-04-22T00:20:58.367Z,16.43
2019-04-22T00:24:04.471Z,16.43
2019-04-22T00:27:15.085Z,16.48
2019-04-22T00:30:18.232Z,16.37
2019-04-22T00:33:24.942Z,16.37
2019-04-22T00:36:27.548Z,16.30
2019-04-22T00:39:40.899Z,16.26
2019-04-22T00:42:41.564Z,16.19
2019-04-22T00:49:18.988Z,16.00
2019-04-22T00:52:03.669Z,15.98
2019-04-22T00:55:16.347Z,15.92
2019-04-22T00:58:16.235Z,15.90
2019-04-22T01:01:32.202Z,15.90
2019-04-22T01:04:28.007Z,15.85
2019-04-22T01:07:32.188Z,15.81
2019-04-22T01:10:44.070Z,15.81
2019-04-22T01:13:38.658Z,15.85
2019-04-22T01:16:52.114Z,15.85
2019-04-22T01:19:59.733Z,15.78
2019-04-22T01:23:00.649Z,15.78
2019-04-22T01:26:01.077Z,15.74
2019-04-22T01:29:05.302Z,15.71
2019-04-22T01:31:58.240Z,15.63
2019-04-22T01:35:13.082Z,15.61
2019-04-22T01:38:31.329Z,15.51
2019-04-22T01:41:48.392Z,15.40
2019-04-22T01:44:45.385Z,15.34
2019-04-22T01:47:53.274Z,15.29
2019-04-22T01:50:54.700Z,15.29
2019-04-22T01:54:05.200Z,15.30
2019-04-22T01:57:09.893Z,15.27
2019-04-22T02:00:05.037Z,15.20
2019-04-22T02:03:26.525Z,15.14
2019-04-22T02:06:30.429Z,15.08
2019-04-22T02:09:41.251Z,15.02
2019-04-22T02:12:38.874Z,14.99
2019-04-22T02:15:47.323Z,15.03
2019-04-22T02:18:52.436Z,15.02
2019-04-22T02:21:56.516Z,15.07
2019-04-22T02:25:13.965Z,15.03
2019-04-22T02:28:16.427Z,15.07
2019-04-22T02:31:25.786Z,15.14
2019-04-22T02:37:29.742Z,15.08
2019-04-22T02:40:56.290Z,15.11
2019-04-22T02:47:04.529Z,15.01
2019-04-22T02:49:53.483Z,14.99
2019-04-22T02:53:00.966Z,14.95
2019-04-22T03:02:43.874Z,14.78
2019-04-22T03:05:36.399Z,14.73
2019-04-22T03:14:45.668Z,14.54
2019-04-22T03:17:57.951Z,14.22
2019-04-22T03:20:58.547Z,14.13
2019-04-22T03:24:20.332Z,14.11
2019-04-22T03:27:10.645Z,14.13
2019-04-22T03:30:41.741Z,14.08
2019-04-22T03:42:43.825Z,13.89
2019-04-22T03:45:42.556Z,13.79
2019-04-22T03:49:07.075Z,13.72
2019-04-22T03:52:05.549Z,13.82
2019-04-22T03:55:16.063Z,13.83
2019-04-22T03:57:57.193Z,13.88
2019-04-22T04:01:18.729Z,13.89
2019-04-22T04:10:35.367Z,13.87
2019-04-22T04:13:41.642Z,13.88
2019-04-22T04:16:49.906Z,13.80
2019-04-22T04:20:05.898Z,13.74
2019-04-22T04:22:58.974Z,13.72
2019-04-22T04:32:27.442Z,13.70
2019-04-22T04:35:32.942Z,13.75
2019-04-22T04:38:26.631Z,13.75
2019-04-22T04:41:34.297Z,13.76
2019-04-22T04:44:58.883Z,13.77
2019-04-22T04:51:00.077Z,13.77
2019-04-22T04:54:01.236Z,13.71
2019-04-22T04:56:56.720Z,13.63
2019-04-22T05:00:34.577Z,13.58
2019-04-22T05:06:22.277Z,13.68
2019-04-22T05:09:21.463Z,13.70
2019-04-22T05:15:31.295Z,13.80
2019-04-22T05:18:49.182Z,13.90
2019-04-22T05:21:50.734Z,13.88
2019-04-22T05:24:53.327Z,13.90
2019-04-22T05:27:50.930Z,13.96
2019-04-22T05:31:01.549Z,13.99
2019-04-22T05:34:08.421Z,14.00
2019-04-22T05:37:17.622Z,14.11
2019-04-22T05:40:20.067Z,14.17
2019-04-22T05:43:21.549Z,14.15
2019-04-22T05:46:29.878Z,14.25
2019-04-22T05:49:31.170Z,14.28
2019-04-22T05:52:40.548Z,14.38
2019-04-22T05:55:46.693Z,14.38
2019-04-22T05:58:58.408Z,14.47
2019-04-22T06:05:10.113Z,14.62
2019-04-22T06:08:13.361Z,14.75
2019-04-22T06:11:22.748Z,14.80
2019-04-22T06:14:27.866Z,14.93
2019-04-22T06:17:32.080Z,14.96
2019-04-22T06:20:42.275Z,15.06
2019-04-22T06:23:51.889Z,15.22
2019-04-22T06:29:55.337Z,15.50
2019-04-22T06:33:00.835Z,15.51
2019-04-22T06:36:08.058Z,15.61
2019-04-22T06:39:14.310Z,15.62
2019-04-22T06:42:21.787Z,15.82
2019-04-22T06:45:24.917Z,15.78
2019-04-22T06:48:33.249Z,15.85
2019-04-22T06:51:37.503Z,15.87
2019-04-22T06:54:45.411Z,16.04
2019-04-22T06:57:45.002Z,16.20
2019-04-22T07:00:58.931Z,16.43
2019-04-22T07:03:58.462Z,16.59
2019-04-22T07:07:08.076Z,16.68
2019-04-22T07:10:26.470Z,16.90
2019-04-22T07:13:23.575Z,16.91
2019-04-22T07:16:25.074Z,17.09
2019-04-22T07:19:36.194Z,17.13
2019-04-22T07:22:38.494Z,17.25
2019-04-22T07:25:40.669Z,17.35
2019-04-22T07:28:43.862Z,17.53
2019-04-22T07:31:54.708Z,17.53
2019-04-22T07:35:03.756Z,17.58
2019-04-22T07:38:11.232Z,17.67
2019-04-22T07:41:28.672Z,17.67
2019-04-22T07:44:16.537Z,17.78
2019-04-22T07:47:39.106Z,17.93
2019-04-22T07:50:43.011Z,18.15
2019-04-22T07:53:33.940Z,18.06
2019-04-22T07:56:48.598Z,18.28
2019-04-22T07:59:49.335Z,18.34
2019-04-22T08:02:59.744Z,18.53
2019-04-22T08:09:11.478Z,18.87
2019-04-22T08:12:16.656Z,18.95
2019-04-22T08:15:24.023Z,19.16
2019-04-22T08:21:33.678Z,19.61
2019-04-22T08:24:41.755Z,19.59
2019-04-22T08:27:46.746Z,19.73
2019-04-22T08:33:54.596Z,19.88
2019-04-22T08:40:18.325Z,20.29
2019-04-22T08:43:22.220Z,20.48
2019-04-22T08:46:30.163Z,20.71
2019-04-22T08:49:23.215Z,20.81
2019-04-22T08:52:35.407Z,20.82
2019-04-22T08:58:50.825Z,21.28
2019-04-22T09:01:53.451Z,21.28
2019-04-22T09:04:54.019Z,21.42
2019-04-22T09:08:09.391Z,21.53
2019-04-22T09:11:16.102Z,21.68
2019-04-22T09:14:15.693Z,21.88
2019-04-22T09:17:22.772Z,22.00
2019-04-22T09:20:26.523Z,22.16
2019-04-22T09:23:40.376Z,22.45
2019-04-22T09:26:45.332Z,22.67
2019-04-22T09:29:43.017Z,22.85
2019-04-22T09:32:54.222Z,22.90
2019-04-22T09:36:00.113Z,23.06
2019-04-22T09:39:04.452Z,22.89
2019-04-22T09:42:10.832Z,22.88
2019-04-22T09:45:15.079Z,23.11
2019-04-22T09:48:23.187Z,23.07
2019-04-22T09:51:30.745Z,23.06
2019-04-22T09:54:44.987Z,23.24
2019-04-22T09:57:41.290Z,23.51
2019-04-22T10:01:16.862Z,23.51
2019-04-22T10:04:24.982Z,23.75
2019-04-22T10:07:23.916Z,23.82
2019-04-22T10:10:29.982Z,23.72
2019-04-22T10:13:34.644Z,23.71
2019-04-22T10:19:40.990Z,24.09
2019-04-22T10:22:54.756Z,23.94
2019-04-22T10:25:57.318Z,23.93
2019-04-22T10:29:07.722Z,23.98
2019-04-22T10:32:07.052Z,24.02
2019-04-22T10:35:23.091Z,24.03
2019-04-22T10:38:26.468Z,24.08
2019-04-22T10:41:30.742Z,24.30
2019-04-22T10:44:35.320Z,24.16
2019-04-22T10:47:40.372Z,23.97
2019-04-22T10:50:46.787Z,23.97
2019-04-22T10:53:51.260Z,23.94
2019-04-22T10:56:55.278Z,23.81
2019-04-22T11:00:00.701Z,23.74
2019-04-22T11:03:06.701Z,23.74
2019-04-22T11:06:11.559Z,23.95
2019-04-22T11:09:16.324Z,24.14
2019-04-22T11:12:24.328Z,24.07
2019-04-22T11:15:26.639Z,24.22
2019-04-22T11:18:31.641Z,24.19
2019-04-22T11:21:36.024Z,24.16
2019-04-22T11:24:41.147Z,24.20
2019-04-22T11:27:45.413Z,24.09
2019-04-22T11:30:50.191Z,24.01
2019-04-22T11:33:54.614Z,24.11
2019-04-22T11:36:58.951Z,24.18
2019-04-22T11:40:11.420Z,24.33
2019-04-22T11:43:10.267Z,24.53
2019-04-22T11:46:15.690Z,24.73
2019-04-22T11:49:19.890Z,24.78
2019-04-22T11:52:24.665Z,24.63
2019-04-22T11:55:29.052Z,24.65
2019-04-22T11:58:33.366Z,24.65
2019-04-22T12:01:39.017Z,24.75
2019-04-22T12:04:43.595Z,25.12
2019-04-22T12:07:48.978Z,25.36
2019-04-22T12:10:57.119Z,25.68
2019-04-22T12:14:00.011Z,25.67
2019-04-22T12:17:04.012Z,26.14
2019-04-22T12:20:10.608Z,26.30
2019-04-22T12:23:14.789Z,26.09
2019-04-22T12:26:20.885Z,26.03
2019-04-22T12:29:24.979Z,26.10
2019-04-22T12:32:29.693Z,26.26
2019-04-22T12:35:34.598Z,26.18
2019-04-22T12:38:39.900Z,26.02
2019-04-22T12:41:44.345Z,26.08
2019-04-22T12:44:49.641Z,25.74
2019-04-22T12:47:55.867Z,25.63
2019-04-22T12:51:00.823Z,25.55
2019-04-22T12:54:04.863Z,25.53
2019-04-22T12:57:10.284Z,25.50
2019-04-22T13:00:15.646Z,25.44
2019-04-22T13:03:22.197Z,25.85
2019-04-22T13:06:27.891Z,26.01
2019-04-22T13:09:33.519Z,26.08
2019-04-22T13:12:39.159Z,25.93
2019-04-22T13:15:44.515Z,25.80
2019-04-22T13:18:54.006Z,25.72
2019-04-22T13:21:54.679Z,25.56
2019-04-22T13:24:59.733Z,25.72
2019-04-22T13:28:05.025Z,25.65
2019-04-22T13:31:09.783Z,25.78
2019-04-22T13:34:21.586Z,26.19
2019-04-22T13:37:20.915Z,26.41
2019-04-22T13:40:25.269Z,26.71
2019-04-22T13:43:29.191Z,26.98
2019-04-22T13:46:34.118Z,27.36
2019-04-22T13:50:27.637Z,27.63
2019-04-22T13:56:19.369Z,27.36
2019-04-22T13:59:09.235Z,27.60
2019-04-22T14:02:30.649Z,27.71
2019-04-22T14:05:37.030Z,27.76
2019-04-22T14:08:43.137Z,28.04
2019-04-22T14:11:52.908Z,28.29
2019-04-22T14:14:54.283Z,27.66
2019-04-22T14:17:58.981Z,27.16
2019-04-22T14:21:02.945Z,27.35
2019-04-22T14:24:10.604Z,27.51
2019-04-22T14:27:25.835Z,27.59
2019-04-22T14:30:18.904Z,27.94
2019-04-22T14:33:22.833Z,27.75
2019-04-22T14:36:27.575Z,27.60
2019-04-22T14:39:31.949Z,27.27
2019-04-22T14:42:56.459Z,27.17
2019-04-22T14:49:10.430Z,27.73
2019-04-22T14:52:15.393Z,28.08
2019-04-22T14:55:09.106Z,28.03
2019-04-22T14:58:06.837Z,27.81
2019-04-22T15:01:12.841Z,27.58
2019-04-22T15:04:17.294Z,27.33
2019-04-22T15:07:23.166Z,27.35
2019-04-22T15:10:28.212Z,27.45
2019-04-22T15:13:33.580Z,27.39
2019-04-22T15:16:57.312Z,27.20
2019-04-22T15:20:19.665Z,27.28
2019-04-22T15:23:24.762Z,27.27
2019-04-22T15:26:28.765Z,27.63
2019-04-22T15:29:33.623Z,27.98
2019-04-22T15:32:39.021Z,27.73
2019-04-22T15:35:43.323Z,27.90
2019-04-22T15:38:49.097Z,27.74
2019-04-22T15:42:00.410Z,27.72
2019-04-22T15:44:59.981Z,27.19
2019-04-22T15:48:04.227Z,27.23
2019-04-22T15:51:08.802Z,27.26
2019-04-22T15:54:13.885Z,27.45
2019-04-22T15:57:17.939Z,27.47
2019-04-22T16:00:35.565Z,27.63
2019-04-22T16:03:29.137Z,27.91
2019-04-22T16:06:34.658Z,27.98
2019-04-22T16:09:39.465Z,28.28
2019-04-22T16:12:56.452Z,28.07
2019-04-22T16:15:50.474Z,27.80
2019-04-22T16:18:54.475Z,28.00
2019-04-22T16:22:03.901Z,28.20
2019-04-22T16:25:31.255Z,27.94
2019-04-22T16:28:35.555Z,27.74
2019-04-22T16:31:39.811Z,27.50
2019-04-22T16:34:43.848Z,27.43
2019-04-22T16:37:48.854Z,27.21
2019-04-22T16:40:52.897Z,27.14
2019-04-22T16:43:56.826Z,26.92
2019-04-22T16:47:01.564Z,26.94
2019-04-22T16:50:07.871Z,26.77
2019-04-22T16:53:14.165Z,26.47
2019-04-22T16:56:18.138Z,26.43
2019-04-22T16:59:22.608Z,26.06
2019-04-22T17:02:50.272Z,26.05
2019-04-22T17:06:29.909Z,26.12
2019-04-22T17:09:34.117Z,26.08
2019-04-22T17:12:48.118Z,25.92
2019-04-22T17:15:45.161Z,25.77
2019-04-22T17:18:50.095Z,25.57
2019-04-22T17:21:55.281Z,25.57
2019-04-22T17:25:00.238Z,25.51
2019-04-22T17:28:05.707Z,25.56
2019-04-22T17:31:10.839Z,25.49
2019-04-22T17:34:15.843Z,25.30
2019-04-22T17:37:25.822Z,25.22
2019-04-22T17:40:44.996Z,25.12
2019-04-22T17:44:04.725Z,25.19
2019-04-22T17:46:58.838Z,24.88
2019-04-22T17:50:19.166Z,24.78
2019-04-22T17:53:26.265Z,24.77
2019-04-22T17:56:30.881Z,24.57
2019-04-22T17:59:32.257Z,24.41
2019-04-22T18:02:32.317Z,24.35
2019-04-22T18:05:40.672Z,24.26
2019-04-22T18:08:57.491Z,24.20
2019-04-22T18:12:05.659Z,24.10
2019-04-22T18:15:11.391Z,24.00
2019-04-22T18:18:20.963Z,23.94
2019-04-22T18:21:16.194Z,23.79
2019-04-22T18:24:17.502Z,23.72
2019-04-22T18:30:33.510Z,23.40
2019-04-22T18:33:37.068Z,23.28
2019-04-22T18:36:45.694Z,23.15
2019-04-22T18:39:57.014Z,23.11
2019-04-22T18:43:03.416Z,22.96
2019-04-22T18:46:10.687Z,22.97
2019-04-22T18:49:11.226Z,22.90
2019-04-22T18:52:53.294Z,22.79
2019-04-22T18:56:16.619Z,22.70
2019-04-22T18:59:09.643Z,22.58
2019-04-22T19:02:07.814Z,22.52
2019-04-22T19:05:25.108Z,22.52
2019-04-22T19:08:36.880Z,22.56
2019-04-22T19:11:52.191Z,22.37
2019-04-22T19:15:01.744Z,22.39
2019-04-22T19:18:01.855Z,22.20
2019-04-22T19:21:03.064Z,22.24
2019-04-22T19:24:07.277Z,22.17
2019-04-22T19:27:08.747Z,22.07
2019-04-22T19:30:16.555Z,22.08
2019-04-22T19:33:23.574Z,22.05
2019-04-22T19:36:36.414Z,21.91
2019-04-22T19:39:35.728Z,21.84
2019-04-22T19:45:48.918Z,21.76
2019-04-22T19:48:57.908Z,21.63
2019-04-22T19:52:05.663Z,21.63
2019-04-22T19:55:07.923Z,21.52
2019-04-22T19:58:12.654Z,21.47
2019-04-22T20:01:49.768Z,21.46
2019-04-22T20:05:11.116Z,21.49
2019-04-22T20:08:14.649Z,21.42
2019-04-22T20:11:23.128Z,21.46
2019-04-22T20:14:28.126Z,21.30
2019-04-22T20:17:31.652Z,21.25
2019-04-22T20:20:41.360Z,21.19
2019-04-22T20:23:38.193Z,21.22
2019-04-22T20:26:49.973Z,21.18
2019-04-22T20:30:14.477Z,21.14
2019-04-22T20:33:00.627Z,21.20
2019-04-22T20:36:14.988Z,21.16
2019-04-22T20:39:09.203Z,21.11
2019-04-22T20:42:33.222Z,20.98
2019-04-22T20:45:33.508Z,20.88
2019-04-22T20:48:22.813Z,20.80
2019-04-22T20:51:50.141Z,20.80
2019-04-22T20:54:40.450Z,20.67
2019-04-22T20:57:57.907Z,20.57
2019-04-22T21:00:46.468Z,20.59
2019-04-22T21:03:47.701Z,20.54
2019-04-22T21:07:02.198Z,20.41
2019-04-22T21:10:09.089Z,20.38
2019-04-22T21:13:14.402Z,20.39
2019-04-22T21:16:26.919Z,20.34
2019-04-22T21:19:38.316Z,20.31
2019-04-22T21:22:32.451Z,20.26
2019-04-22T21:25:29.189Z,20.17
2019-04-22T21:28:44.310Z,20.06
2019-04-22T21:31:57.953Z,20.05
2019-04-22T21:35:06.687Z,19.98
2019-04-22T21:38:08.723Z,20.00
2019-04-22T21:41:12.649Z,19.92
2019-04-22T21:44:14.152Z,19.83
2019-04-22T21:47:26.146Z,19.74
2019-04-22T21:50:48.580Z,19.72
2019-04-22T21:53:41.612Z,19.73
2019-04-22T21:57:10.213Z,19.61
2019-04-22T22:00:04.434Z,19.54
2019-04-22T22:03:17.047Z,19.40
2019-04-22T22:06:06.201Z,19.32
2019-04-22T22:09:22.141Z,19.32
2019-04-22T22:12:26.471Z,19.26
2019-04-22T22:15:33.824Z,19.26
2019-04-22T22:18:30.350Z,19.16
2019-04-22T22:21:51.178Z,19.21
2019-04-22T22:24:53.184Z,19.12
2019-04-22T22:27:47.467Z,19.10
2019-04-22T22:31:12.952Z,19.02
2019-04-22T22:34:10.801Z,18.99
2019-04-22T22:37:06.478Z,18.77
2019-04-22T22:40:07.184Z,18.79
2019-04-22T22:43:11.725Z,18.79
2019-04-22T22:46:22.700Z,18.65
2019-04-22T22:49:54.624Z,18.60
2019-04-22T22:55:46.391Z,18.50
2019-04-22T22:58:52.331Z,18.35
2019-04-22T23:01:54.434Z,18.37
2019-04-22T23:05:05.906Z,18.36
2019-04-22T23:08:16.957Z,18.30
2019-04-22T23:11:20.614Z,18.03
2019-04-22T23:14:23.238Z,18.03
2019-04-22T23:17:13.997Z,18.12
2019-04-22T23:20:13.635Z,18.10
2019-04-22T23:23:37.878Z,18.05
2019-04-22T23:26:42.020Z,18.07
2019-04-22T23:29:55.838Z,17.98
2019-04-22T23:33:09.930Z,17.85
2019-04-22T23:36:25.065Z,17.78
2019-04-22T23:39:48.210Z,17.68
2019-04-22T23:42:52.825Z,17.68
2019-04-22T23:45:57.942Z,17.58
2019-04-22T23:49:04.550Z,17.58
2019-04-22T23:52:13.058Z,17.65
2019-04-22T23:55:18.077Z,17.60
2019-04-22T23:58:37.770Z,17.46
